createdAt,value
2022-08-15T00:00:34.619Z,5.10
2022-08-15T00:03:10.471Z,5.43
2022-08-15T00:05:41.430Z,5.30
2022-08-15T00:08:50.471Z,5.40
2022-08-15T00:11:32.435Z,5.28
2022-08-15T00:14:31.164Z,5.65
2022-08-15T00:17:10.133Z,5.80
2022-08-15T00:19:45.728Z,6.15
2022-08-15T00:22:19.261Z,5.35
2022-08-15T00:24:51.183Z,5.82
2022-08-15T00:27:20.812Z,5.93
2022-08-15T00:29:54.048Z,5.43
2022-08-15T00:33:01.597Z,5.65
2022-08-15T00:35:38.261Z,5.38
2022-08-15T00:38:12.131Z,5.43
2022-08-15T00:41:10.075Z,5.60
2022-08-15T00:43:48.545Z,5.60
2022-08-15T00:46:21.502Z,5.93
2022-08-15T00:48:51.541Z,5.88
2022-08-15T00:51:34.343Z,6.05
2022-08-15T00:54:57.236Z,6.20
2022-08-15T00:57:59.864Z,5.88
2022-08-15T01:00:37.511Z,5.90
2022-08-15T01:03:16.531Z,6.20
2022-08-15T01:05:48.876Z,6.32
2022-08-15T01:08:27.934Z,6.35
2022-08-15T01:11:22.871Z,6.47
2022-08-15T01:14:03.589Z,6.13
2022-08-15T01:16:34.336Z,6.00
2022-08-15T01:19:10.618Z,5.95
2022-08-15T01:22:15.599Z,6.13
2022-08-15T01:25:25.438Z,6.70
2022-08-15T01:27:59.304Z,6.13
2022-08-15T01:30:40.317Z,6.55
2022-08-15T01:33:28.235Z,6.00
2022-08-15T01:35:56.730Z,5.95
2022-08-15T01:39:05.669Z,5.63
2022-08-15T01:41:54.455Z,6.35
2022-08-15T01:44:36.927Z,6.63
2022-08-15T01:47:16.270Z,6.45
2022-08-15T01:49:57.925Z,7.53
2022-08-15T01:53:17.310Z,7.80
2022-08-15T01:55:32.281Z,7.38
2022-08-15T01:58:03.062Z,6.65
2022-08-15T02:00:29.661Z,6.18
2022-08-15T02:02:56.947Z,7.00
2022-08-15T02:05:24.030Z,6.65
2022-08-15T02:08:34.423Z,6.60
2022-08-15T02:10:37.529Z,6.88
2022-08-15T02:13:12.130Z,6.32
2022-08-15T02:15:40.214Z,7.10
2022-08-15T02:18:19.833Z,6.82
2022-08-15T02:20:50.860Z,7.47
2022-08-15T02:23:20.333Z,7.78
2022-08-15T02:25:49.283Z,7.13
2022-08-15T02:28:34.852Z,7.07
2022-08-15T02:31:08.612Z,6.73
2022-08-15T02:33:38.664Z,7.25
2022-08-15T02:36:05.944Z,7.13
2022-08-15T02:38:48.152Z,7.25
2022-08-15T02:41:20.832Z,6.55
2022-08-15T02:43:50.138Z,6.88
2022-08-15T02:46:29.321Z,6.53
2022-08-15T02:49:02.372Z,7.05
2022-08-15T02:51:32.307Z,7.55
2022-08-15T02:54:37.570Z,6.93
2022-08-15T02:57:05.518Z,7.13
2022-08-15T02:59:33.491Z,7.30
2022-08-15T03:02:04.941Z,7.57
2022-08-15T03:04:51.380Z,7.07
2022-08-15T03:07:20.320Z,6.35
2022-08-15T03:09:56.703Z,6.78
2022-08-15T03:12:32.385Z,6.03
2022-08-15T03:15:04.310Z,7.13
2022-08-15T03:17:34.711Z,6.50
2022-08-15T03:20:05.126Z,6.65
2022-08-15T03:22:47.403Z,6.95
2022-08-15T03:25:16.831Z,6.90
2022-08-15T03:27:45.311Z,6.60
2022-08-15T03:30:19.028Z,6.35
2022-08-15T03:32:47.690Z,6.75
2022-08-15T03:35:17.350Z,6.47
2022-08-15T03:37:59.948Z,6.82
2022-08-15T03:40:30.183Z,6.95
2022-08-15T03:43:13.378Z,6.10
2022-08-15T03:45:55.614Z,6.45
2022-08-15T03:48:31.679Z,6.30
2022-08-15T03:51:04.186Z,6.53
2022-08-15T03:53:45.622Z,6.18
2022-08-15T03:56:21.106Z,6.75
2022-08-15T03:58:53.213Z,7.05
2022-08-15T04:01:29.081Z,5.55
2022-08-15T04:03:56.605Z,5.63
2022-08-15T04:06:30.303Z,6.30
2022-08-15T04:09:12.785Z,5.72
2022-08-15T04:11:41.489Z,6.00
2022-08-15T04:14:32.875Z,6.50
2022-08-15T04:17:05.490Z,7.75
2022-08-15T04:19:46.025Z,6.82
2022-08-15T04:22:28.801Z,6.95
2022-08-15T04:25:18.585Z,6.35
2022-08-15T04:27:53.920Z,5.70
2022-08-15T04:30:25.786Z,6.38
2022-08-15T04:33:18.898Z,6.28
2022-08-15T04:36:02.537Z,6.38
2022-08-15T04:38:32.249Z,6.22
2022-08-15T04:41:17.532Z,5.93
2022-08-15T04:43:49.871Z,6.05
2022-08-15T04:46:22.765Z,5.93
2022-08-15T04:48:53.316Z,6.82
2022-08-15T04:51:19.920Z,7.30
2022-08-15T04:53:56.110Z,6.10
2022-08-15T04:56:47.599Z,7.10
2022-08-15T04:59:34.117Z,7.00
2022-08-15T05:02:49.470Z,6.80
2022-08-15T05:04:43.980Z,6.85
2022-08-15T05:07:10.507Z,6.70
2022-08-15T05:10:00.303Z,6.30
2022-08-15T05:12:33.621Z,6.03
2022-08-15T05:15:18.211Z,6.80
2022-08-15T05:17:56.541Z,6.65
2022-08-15T05:20:24.922Z,7.10
2022-08-15T05:23:06.902Z,10.70
2022-08-15T05:25:42.333Z,10.38
2022-08-15T05:28:29.891Z,10.30
2022-08-15T05:31:04.450Z,6.47
2022-08-15T05:33:56.704Z,6.22
2022-08-15T05:36:28.067Z,7.28
2022-08-15T05:39:01.396Z,7.10
2022-08-15T05:41:33.706Z,6.70
2022-08-15T05:44:38.707Z,6.75
2022-08-15T05:47:35.633Z,8.13
2022-08-15T05:50:59.424Z,5.88
2022-08-15T05:53:40.375Z,6.72
2022-08-15T05:56:29.783Z,6.35
2022-08-15T05:59:06.461Z,6.53
2022-08-15T06:02:35.676Z,6.53
2022-08-15T06:05:16.666Z,6.10
2022-08-15T06:07:55.406Z,6.57
2022-08-15T06:10:37.349Z,6.60
2022-08-15T06:13:19.873Z,6.25
2022-08-15T06:16:46.263Z,5.75
2022-08-15T06:19:24.259Z,5.45
2022-08-15T06:22:34.346Z,6.50
2022-08-15T06:25:38.184Z,6.55
2022-08-15T06:31:41.668Z,6.45
2022-08-15T06:34:55.634Z,6.57
2022-08-15T06:38:00.462Z,6.40
2022-08-15T06:41:00.954Z,6.20
2022-08-15T06:43:29.401Z,6.88
2022-08-15T06:46:02.827Z,6.35
2022-08-15T06:48:58.698Z,5.25
2022-08-15T06:51:44.427Z,6.43
2022-08-15T06:54:34.819Z,5.85
2022-08-15T06:57:20.704Z,6.13
2022-08-15T07:00:35.986Z,5.63
2022-08-15T07:03:42.699Z,5.78
2022-08-15T07:06:18.438Z,5.72
2022-08-15T07:09:41.608Z,5.95
2022-08-15T07:13:15.730Z,5.55
2022-08-15T07:15:58.965Z,5.57
2022-08-15T07:18:35.984Z,5.93
2022-08-15T07:21:13.337Z,5.50
2022-08-15T07:24:34.530Z,5.60
2022-08-15T07:27:07.320Z,5.40
2022-08-15T07:29:40.760Z,4.63
2022-08-15T07:32:32.019Z,5.30
2022-08-15T07:35:20.603Z,5.07
2022-08-15T07:37:57.595Z,5.35
2022-08-15T07:40:39.905Z,4.72
2022-08-15T07:43:34.976Z,5.00
2022-08-15T07:46:25.550Z,5.00
2022-08-15T07:49:15.827Z,5.05
2022-08-15T07:52:43.656Z,5.22
2022-08-15T07:55:37.861Z,4.63
2022-08-15T07:58:24.182Z,4.85
2022-08-15T08:01:34.122Z,5.03
2022-08-15T08:04:23.085Z,4.72
2022-08-15T08:07:00.232Z,5.30
2022-08-15T08:09:45.942Z,5.30
2022-08-15T08:12:58.961Z,5.10
2022-08-15T08:15:42.595Z,4.78
2022-08-15T08:18:26.683Z,4.72
2022-08-15T08:21:08.630Z,5.10
2022-08-15T08:23:43.842Z,4.57
2022-08-15T08:26:34.577Z,4.50
2022-08-15T08:29:19.401Z,5.20
2022-08-15T08:32:44.870Z,4.10
2022-08-15T08:35:45.497Z,4.80
2022-08-15T08:38:58.685Z,4.32
2022-08-15T08:42:20.888Z,7.80
2022-08-15T08:45:12.935Z,4.97
2022-08-15T08:48:21.059Z,4.03
2022-08-15T08:51:17.240Z,3.42
2022-08-15T08:53:56.549Z,4.13
2022-08-15T08:56:35.618Z,15.68
2022-08-15T08:59:28.902Z,3.83
2022-08-15T09:02:21.028Z,4.28
2022-08-15T09:05:10.694Z,3.67
2022-08-15T09:07:47.193Z,3.60
2022-08-15T09:10:27.432Z,4.70
2022-08-15T09:13:18.581Z,4.60
2022-08-15T09:15:54.170Z,3.67
2022-08-15T09:19:03.313Z,3.92
2022-08-15T09:21:38.090Z,3.60
2022-08-15T09:24:37.910Z,3.97
2022-08-15T09:27:20.807Z,3.78
2022-08-15T09:30:44.926Z,3.78
2022-08-15T09:33:15.978Z,3.15
2022-08-15T09:36:27.522Z,3.50
2022-08-15T09:39:38.248Z,4.40
2022-08-15T09:43:06.604Z,3.88
2022-08-15T09:45:47.096Z,4.28
2022-08-15T09:48:46.020Z,4.75
2022-08-15T09:51:44.355Z,3.65
2022-08-15T09:54:28.841Z,3.90
2022-08-15T09:57:30.203Z,4.60
2022-08-15T10:00:20.965Z,4.55
2022-08-15T10:02:52.822Z,5.00
2022-08-15T10:05:52.390Z,4.13
2022-08-15T10:08:28.959Z,3.60
2022-08-15T10:11:12.580Z,4.45
2022-08-15T10:13:40.779Z,4.72
2022-08-15T10:16:55.298Z,4.10
2022-08-15T10:20:01.303Z,4.10
2022-08-15T10:22:44.730Z,4.80
2022-08-15T10:25:18.675Z,12.20
2022-08-15T10:28:35.308Z,4.85
2022-08-15T10:31:02.366Z,3.67
2022-08-15T10:33:58.379Z,4.20
2022-08-15T10:36:41.869Z,4.85
2022-08-15T10:40:02.564Z,4.10
2022-08-15T10:42:51.327Z,4.22
2022-08-15T10:45:41.027Z,5.07
2022-08-15T10:49:10.267Z,5.20
2022-08-15T10:52:24.482Z,4.47
2022-08-15T10:55:16.857Z,5.22
2022-08-15T10:57:52.694Z,5.13
2022-08-15T11:00:52.334Z,4.38
2022-08-15T11:04:48.743Z,4.05
2022-08-15T11:06:27.601Z,5.40
2022-08-15T11:09:05.561Z,5.63
2022-08-15T11:11:39.091Z,4.50
2022-08-15T11:14:29.175Z,4.47
2022-08-15T11:17:00.426Z,4.88
2022-08-15T11:20:09.572Z,4.18
2022-08-15T11:22:38.411Z,3.55
2022-08-15T11:25:21.118Z,4.07
2022-08-15T11:28:36.772Z,4.22
2022-08-15T11:31:12.377Z,4.35
2022-08-15T11:33:44.294Z,3.47
2022-08-15T11:36:25.732Z,3.88
2022-08-15T11:39:15.275Z,4.32
2022-08-15T11:41:54.788Z,4.93
2022-08-15T11:44:31.083Z,4.50
2022-08-15T11:46:58.166Z,4.20
2022-08-15T11:49:43.437Z,4.90
2022-08-15T11:52:42.633Z,5.63
2022-08-15T11:55:16.997Z,4.70
2022-08-15T11:58:18.558Z,4.63
2022-08-15T12:00:52.386Z,5.22
2022-08-15T12:04:40.048Z,5.32
2022-08-15T12:12:32.789Z,5.07
2022-08-15T12:13:17.118Z,5.53
2022-08-15T12:13:17.652Z,5.10
2022-08-15T12:15:11.708Z,4.65
2022-08-15T12:18:47.170Z,4.82
2022-08-15T12:21:17.958Z,4.60
2022-08-15T12:23:57.422Z,4.97
2022-08-15T12:26:39.557Z,4.32
2022-08-15T12:29:18.633Z,6.20
2022-08-15T12:31:48.125Z,5.03
2022-08-15T12:34:28.906Z,5.18
2022-08-15T12:37:07.592Z,4.63
2022-08-15T12:39:45.380Z,4.75
2022-08-15T12:45:20.241Z,4.72
2022-08-15T12:48:06.807Z,4.32
2022-08-15T12:50:37.218Z,6.93
2022-08-15T12:53:08.620Z,4.55
2022-08-15T12:55:39.375Z,5.53
2022-08-15T12:58:07.619Z,4.80
2022-08-15T13:01:02.937Z,4.75
2022-08-15T13:03:39.382Z,4.93
2022-08-15T13:06:34.446Z,4.50
2022-08-15T13:09:06.496Z,4.70
2022-08-15T13:11:36.694Z,4.50
2022-08-15T13:14:04.255Z,4.28
2022-08-15T13:17:07.604Z,4.40
2022-08-15T13:19:27.795Z,4.28
2022-08-15T13:22:32.862Z,4.28
2022-08-15T13:25:02.182Z,5.00
2022-08-15T13:27:31.957Z,5.00
2022-08-15T13:30:06.469Z,4.43
2022-08-15T13:32:37.988Z,4.80
2022-08-15T13:35:09.893Z,4.22
2022-08-15T13:37:58.926Z,4.38
2022-08-15T13:40:29.370Z,5.00
2022-08-15T13:43:11.827Z,11.15
2022-08-15T13:45:56.639Z,6.75
2022-08-15T13:48:36.975Z,4.63
2022-08-15T13:51:13.150Z,4.78
2022-08-15T13:56:33.757Z,4.47
2022-08-15T13:59:12.196Z,3.90
2022-08-15T14:01:44.220Z,3.85
2022-08-15T14:04:29.220Z,7.60
2022-08-15T14:06:57.415Z,4.50
2022-08-15T14:10:00.803Z,6.38
2022-08-15T14:12:13.907Z,4.50
2022-08-15T14:14:46.952Z,4.93
2022-08-15T14:17:29.041Z,4.35
2022-08-15T14:22:53.925Z,4.50
2022-08-15T14:27:15.300Z,4.10
2022-08-15T14:28:19.382Z,4.00
2022-08-15T14:30:55.181Z,4.70
2022-08-15T14:33:24.024Z,3.75
2022-08-15T14:35:50.723Z,5.22
2022-08-15T14:38:20.799Z,4.45
2022-08-15T14:40:48.549Z,4.22
2022-08-15T14:43:18.042Z,4.00
2022-08-15T14:46:34.217Z,4.20
2022-08-15T14:48:47.153Z,4.15
2022-08-15T14:52:12.147Z,3.60
2022-08-15T14:54:43.432Z,4.22
2022-08-15T14:57:09.022Z,3.90
2022-08-15T14:59:56.298Z,4.40
2022-08-15T15:02:29.102Z,4.18
2022-08-15T15:05:01.298Z,4.50
2022-08-15T15:07:54.018Z,4.32
2022-08-15T15:10:25.918Z,4.30
2022-08-15T15:13:10.598Z,4.18
2022-08-15T15:15:43.593Z,4.30
2022-08-15T15:18:38.335Z,3.90
2022-08-15T15:21:14.949Z,3.80
2022-08-15T15:23:45.973Z,3.60
2022-08-15T15:29:04.867Z,3.90
2022-08-15T15:31:34.442Z,3.67
2022-08-15T15:34:15.008Z,3.83
2022-08-15T15:36:46.667Z,4.07
2022-08-15T15:39:45.252Z,4.00
2022-08-15T15:42:17.601Z,3.95
2022-08-15T15:44:48.906Z,3.92
2022-08-15T15:47:25.733Z,3.88
2022-08-15T15:49:55.055Z,3.67
2022-08-15T15:52:31.939Z,4.10
2022-08-15T15:55:04.901Z,3.80
2022-08-15T15:58:00.883Z,3.88
2022-08-15T16:00:27.613Z,4.10
2022-08-15T16:03:02.253Z,3.60
2022-08-15T16:06:03.679Z,4.28
2022-08-15T16:08:47.450Z,4.03
2022-08-15T16:12:02.589Z,3.97
2022-08-15T16:17:57.205Z,3.42
2022-08-15T16:20:47.133Z,3.90
2022-08-15T16:23:23.166Z,4.10
2022-08-15T16:26:02.940Z,3.60
2022-08-15T16:29:11.803Z,4.45
2022-08-15T16:31:53.430Z,3.85
2022-08-15T16:34:33.709Z,3.90
2022-08-15T16:37:15.951Z,4.32
2022-08-15T16:40:25.350Z,4.25
2022-08-15T16:42:50.492Z,4.20
2022-08-15T16:45:31.458Z,3.65
2022-08-15T16:48:38.116Z,4.18
2022-08-15T16:52:09.465Z,3.80
2022-08-15T16:55:30.378Z,4.25
2022-08-15T17:01:54.262Z,3.67
2022-08-15T17:04:59.522Z,3.72
2022-08-15T17:08:13.509Z,3.78
2022-08-15T17:11:15.922Z,3.75
2022-08-15T17:14:30.599Z,4.13
2022-08-15T17:17:40.211Z,3.90
2022-08-15T17:20:21.631Z,3.40
2022-08-15T17:23:14.060Z,3.80
2022-08-15T17:26:00.121Z,4.13
2022-08-15T17:28:45.794Z,3.65
2022-08-15T17:31:19.711Z,3.87
2022-08-15T17:34:37.109Z,3.95
2022-08-15T17:36:52.005Z,3.30
2022-08-15T17:39:38.597Z,3.70
2022-08-15T17:42:25.951Z,3.85
2022-08-15T17:45:36.926Z,3.03
2022-08-15T17:48:29.059Z,3.00
2022-08-15T17:51:32.191Z,3.55
2022-08-15T17:54:05.922Z,3.88
2022-08-15T17:57:01.273Z,3.80
2022-08-15T17:59:46.080Z,2.72
2022-08-15T18:02:31.794Z,3.35
2022-08-15T18:05:03.243Z,3.70
2022-08-15T18:07:33.807Z,2.60
2022-08-15T18:10:32.268Z,3.38
2022-08-15T18:13:11.577Z,2.53
2022-08-15T18:16:05.703Z,2.97
2022-08-15T18:18:58.501Z,3.63
2022-08-15T18:21:43.622Z,3.03
2022-08-15T18:24:49.706Z,3.20
2022-08-15T18:27:54.668Z,3.72
2022-08-15T18:30:27.290Z,3.97
2022-08-15T18:33:27.155Z,3.10
2022-08-15T18:36:28.463Z,3.20
2022-08-15T18:39:18.681Z,3.17
2022-08-15T18:41:48.942Z,3.00
2022-08-15T18:44:33.926Z,2.60
2022-08-15T18:47:22.719Z,3.50
2022-08-15T18:49:49.480Z,3.17
2022-08-15T18:52:20.744Z,2.85
2022-08-15T18:55:00.013Z,3.38
2022-08-15T18:57:46.070Z,3.30
2022-08-15T19:00:32.931Z,3.20
2022-08-15T19:03:22.285Z,3.00
2022-08-15T19:06:33.677Z,4.20
2022-08-15T19:08:58.452Z,2.70
2022-08-15T19:11:28.128Z,3.00
2022-08-15T19:14:31.045Z,3.20
2022-08-15T19:17:17.674Z,2.70
2022-08-15T19:23:01.745Z,3.22
2022-08-15T19:25:53.761Z,2.95
2022-08-15T19:28:40.982Z,3.13
2022-08-15T19:31:52.727Z,4.63
2022-08-15T19:34:51.487Z,3.67
2022-08-15T19:38:26.914Z,4.03
2022-08-15T19:41:17.466Z,4.25
2022-08-15T19:44:21.013Z,4.07
2022-08-15T19:47:09.650Z,3.80
2022-08-15T19:50:20.327Z,3.92
2022-08-15T19:53:10.198Z,3.70
2022-08-15T19:55:55.983Z,4.00
2022-08-15T19:58:48.063Z,3.65
2022-08-15T20:01:26.383Z,4.00
2022-08-15T20:04:44.340Z,5.03
2022-08-15T20:07:49.863Z,4.05
2022-08-15T20:10:44.304Z,4.28
2022-08-15T20:13:17.607Z,4.55
2022-08-15T20:16:07.793Z,3.83
2022-08-15T20:18:48.764Z,3.88
2022-08-15T20:21:43.906Z,4.18
2022-08-15T20:24:34.505Z,3.85
2022-08-15T20:27:13.824Z,3.92
2022-08-15T20:30:20.288Z,3.88
2022-08-15T20:33:25.451Z,3.90
2022-08-15T20:36:07.875Z,3.63
2022-08-15T20:38:48.286Z,3.30
2022-08-15T20:41:30.750Z,3.70
2022-08-15T20:44:40.129Z,3.60
2022-08-15T20:47:21.494Z,3.90
2022-08-15T20:49:53.240Z,3.42
2022-08-15T20:52:41.336Z,3.67
2022-08-15T20:55:28.700Z,3.47
2022-08-15T20:57:59.683Z,3.63
2022-08-15T21:01:12.723Z,3.28
2022-08-15T21:04:02.560Z,3.63
2022-08-15T21:06:19.949Z,3.83
2022-08-15T21:09:08.100Z,3.80
2022-08-15T21:12:03.505Z,3.53
2022-08-15T21:15:10.033Z,3.47
2022-08-15T21:18:31.190Z,4.10
2022-08-15T21:21:17.021Z,3.97
2022-08-15T21:24:01.113Z,4.00
2022-08-15T21:26:40.746Z,3.58
2022-08-15T21:29:14.151Z,3.88
2022-08-15T21:32:12.394Z,4.20
2022-08-15T21:35:15.607Z,3.95
2022-08-15T21:37:53.745Z,4.10
2022-08-15T21:40:45.466Z,4.20
2022-08-15T21:44:23.638Z,4.07
2022-08-15T21:47:38.730Z,3.58
2022-08-15T21:50:48.438Z,4.00
2022-08-15T21:53:37.616Z,4.15
2022-08-15T21:56:25.960Z,4.22
2022-08-15T22:00:20.269Z,4.35
2022-08-15T22:02:42.866Z,4.13
2022-08-15T22:05:22.411Z,4.07
2022-08-15T22:08:11.362Z,4.22
2022-08-15T22:10:41.786Z,4.50
2022-08-15T22:13:08.805Z,4.60
2022-08-15T22:15:36.128Z,5.00
2022-08-15T22:18:28.680Z,5.00
2022-08-15T22:20:51.801Z,4.53
2022-08-15T22:23:20.761Z,4.45
2022-08-15T22:25:59.026Z,4.57
2022-08-15T22:28:51.020Z,4.82
2022-08-15T22:31:44.060Z,4.53
2022-08-15T22:34:09.423Z,4.00
2022-08-15T22:36:46.801Z,4.07
2022-08-15T22:39:14.491Z,3.75
2022-08-15T22:41:44.603Z,4.50
2022-08-15T22:44:28.997Z,4.35
2022-08-15T22:47:01.371Z,3.85
2022-08-15T22:49:32.207Z,4.28
2022-08-15T22:52:20.455Z,3.90
2022-08-15T22:54:50.928Z,3.80
2022-08-15T22:57:57.745Z,3.80
2022-08-15T23:00:19.506Z,3.72
2022-08-15T23:02:49.807Z,3.72
2022-08-15T23:05:27.654Z,3.67
2022-08-15T23:08:28.703Z,4.00
2022-08-15T23:11:19.656Z,4.10
2022-08-15T23:13:59.082Z,3.58
2022-08-15T23:17:11.561Z,3.42
2022-08-15T23:20:09.427Z,4.03
2022-08-15T23:22:38.221Z,3.67
2022-08-15T23:25:19.142Z,4.15
2022-08-15T23:27:47.084Z,3.28
2022-08-15T23:30:45.306Z,3.20
2022-08-15T23:33:27.418Z,3.22
2022-08-15T23:35:56.075Z,3.60
2022-08-15T23:38:23.536Z,3.50
2022-08-15T23:41:09.926Z,3.47
2022-08-15T23:43:55.744Z,3.63
2022-08-15T23:49:03.990Z,3.50
2022-08-15T23:51:30.860Z,3.53
2022-08-15T23:53:58.311Z,3.33
2022-08-15T23:56:35.199Z,3.40
2022-08-15T23:59:12.791Z,3.55
